sensor_id;sensor_type;location;lat;lon;timestamp;P1;durP1;ratioP1;P2;durP2;ratioP2
75760;SDS011;64373;46.136;8.830;2023-03-13T00:04:06;5.18;;;2.90;;
75760;SDS011;64373;46.136;8.830;2023-03-13T00:06:33;5.75;;;2.70;;
75760;SDS011;64373;46.136;8.830;2023-03-13T00:09:01;7.85;;;2.90;;
75760;SDS011;64373;46.136;8.830;2023-03-13T00:11:27;4.63;;;2.35;;
75760;SDS011;64373;46.136;8.830;2023-03-13T00:13:53;4.38;;;2.78;;
75760;SDS011;64373;46.136;8.830;2023-03-13T00:16:20;5.35;;;2.47;;
75760;SDS011;64373;46.136;8.830;2023-03-13T00:18:47;7.97;;;2.58;;
75760;SDS011;64373;46.136;8.830;2023-03-13T00:21:14;5.13;;;2.20;;
75760;SDS011;64373;46.136;8.830;2023-03-13T00:23:40;6.10;;;2.80;;
75760;SDS011;64373;46.136;8.830;2023-03-13T00:26:07;4.47;;;2.80;;
75760;SDS011;64373;46.136;8.830;2023-03-13T00:28:34;4.68;;;2.50;;
75760;SDS011;64373;46.136;8.830;2023-03-13T00:33:31;5.95;;;3.15;;
75760;SDS011;64373;46.136;8.830;2023-03-13T00:36:02;6.68;;;3.20;;
75760;SDS011;64373;46.136;8.830;2023-03-13T00:38:38;7.95;;;3.38;;
75760;SDS011;64373;46.136;8.830;2023-03-13T00:41:05;8.77;;;3.78;;
75760;SDS011;64373;46.136;8.830;2023-03-13T00:43:32;7.72;;;3.97;;
75760;SDS011;64373;46.136;8.830;2023-03-13T00:45:58;9.70;;;3.78;;
75760;SDS011;64373;46.136;8.830;2023-03-13T00:48:24;5.75;;;3.10;;
75760;SDS011;64373;46.136;8.830;2023-03-13T00:50:49;6.55;;;3.60;;
75760;SDS011;64373;46.136;8.830;2023-03-13T00:53:15;6.63;;;3.67;;
75760;SDS011;64373;46.136;8.830;2023-03-13T00:58:23;9.40;;;3.50;;
75760;SDS011;64373;46.136;8.830;2023-03-13T01:00:49;6.63;;;3.60;;
75760;SDS011;64373;46.136;8.830;2023-03-13T01:03:15;7.82;;;3.05;;
75760;SDS011;64373;46.136;8.830;2023-03-13T01:05:40;6.35;;;3.50;;
75760;SDS011;64373;46.136;8.830;2023-03-13T01:08:06;7.82;;;3.50;;
75760;SDS011;64373;46.136;8.830;2023-03-13T01:10:32;6.43;;;3.20;;
75760;SDS011;64373;46.136;8.830;2023-03-13T01:12:57;6.65;;;2.95;;
75760;SDS011;64373;46.136;8.830;2023-03-13T01:15:23;6.10;;;3.35;;
75760;SDS011;64373;46.136;8.830;2023-03-13T01:17:49;6.78;;;3.65;;
75760;SDS011;64373;46.136;8.830;2023-03-13T01:20:14;6.43;;;3.88;;
75760;SDS011;64373;46.136;8.830;2023-03-13T01:22:40;11.15;;;3.63;;
75760;SDS011;64373;46.136;8.830;2023-03-13T01:25:06;7.82;;;3.45;;
75760;SDS011;64373;46.136;8.830;2023-03-13T01:27:32;5.03;;;3.22;;
75760;SDS011;64373;46.136;8.830;2023-03-13T01:29:57;6.00;;;3.33;;
75760;SDS011;64373;46.136;8.830;2023-03-13T01:32:23;7.35;;;3.15;;
75760;SDS011;64373;46.136;8.830;2023-03-13T01:34:48;6.72;;;3.58;;
75760;SDS011;64373;46.136;8.830;2023-03-13T01:37:14;5.03;;;3.08;;
75760;SDS011;64373;46.136;8.830;2023-03-13T01:39:39;5.65;;;3.28;;
75760;SDS011;64373;46.136;8.830;2023-03-13T01:42:05;7.13;;;3.40;;
75760;SDS011;64373;46.136;8.830;2023-03-13T01:44:52;6.45;;;2.70;;
75760;SDS011;64373;46.136;8.830;2023-03-13T01:47:19;5.38;;;3.17;;
75760;SDS011;64373;46.136;8.830;2023-03-13T01:49:45;5.07;;;3.22;;
75760;SDS011;64373;46.136;8.830;2023-03-13T01:52:18;5.68;;;3.45;;
75760;SDS011;64373;46.136;8.830;2023-03-13T02:02:29;9.75;;;3.38;;
75760;SDS011;64373;46.136;8.830;2023-03-13T02:04:56;4.93;;;3.40;;
75760;SDS011;64373;46.136;8.830;2023-03-13T02:07:33;6.88;;;3.25;;
75760;SDS011;64373;46.136;8.830;2023-03-13T02:10:11;6.97;;;3.50;;
75760;SDS011;64373;46.136;8.830;2023-03-13T02:12:38;7.03;;;3.03;;
75760;SDS011;64373;46.136;8.830;2023-03-13T02:15:08;7.47;;;3.03;;
75760;SDS011;64373;46.136;8.830;2023-03-13T02:17:38;5.97;;;2.90;;
75760;SDS011;64373;46.136;8.830;2023-03-13T02:20:04;7.47;;;3.10;;
75760;SDS011;64373;46.136;8.830;2023-03-13T02:28:34;6.18;;;2.85;;
75760;SDS011;64373;46.136;8.830;2023-03-13T02:30:38;5.30;;;2.70;;
75760;SDS011;64373;46.136;8.830;2023-03-13T02:33:04;5.25;;;2.80;;
75760;SDS011;64373;46.136;8.830;2023-03-13T02:35:30;4.10;;;2.55;;
75760;SDS011;64373;46.136;8.830;2023-03-13T02:37:56;7.95;;;3.03;;
75760;SDS011;64373;46.136;8.830;2023-03-13T02:40:28;4.18;;;2.17;;
75760;SDS011;64373;46.136;8.830;2023-03-13T02:42:55;6.75;;;2.67;;
75760;SDS011;64373;46.136;8.830;2023-03-13T02:45:24;4.78;;;2.20;;
75760;SDS011;64373;46.136;8.830;2023-03-13T02:47:49;3.78;;;2.10;;
75760;SDS011;64373;46.136;8.830;2023-03-13T02:50:15;4.28;;;2.50;;
75760;SDS011;64373;46.136;8.830;2023-03-13T02:55:09;4.20;;;2.13;;
75760;SDS011;64373;46.136;8.830;2023-03-13T02:57:37;3.78;;;2.30;;
75760;SDS011;64373;46.136;8.830;2023-03-13T03:00:03;6.18;;;2.40;;
75760;SDS011;64373;46.136;8.830;2023-03-13T03:02:31;3.58;;;2.30;;
75760;SDS011;64373;46.136;8.830;2023-03-13T03:04:56;5.95;;;2.63;;
75760;SDS011;64373;46.136;8.830;2023-03-13T03:07:22;3.70;;;2.38;;
75760;SDS011;64373;46.136;8.830;2023-03-13T03:09:47;3.40;;;2.10;;
75760;SDS011;64373;46.136;8.830;2023-03-13T03:12:13;4.55;;;2.22;;
75760;SDS011;64373;46.136;8.830;2023-03-13T03:14:38;4.28;;;1.98;;
75760;SDS011;64373;46.136;8.830;2023-03-13T03:17:04;4.88;;;2.08;;
75760;SDS011;64373;46.136;8.830;2023-03-13T03:19:30;3.92;;;2.10;;
75760;SDS011;64373;46.136;8.830;2023-03-13T03:21:55;7.18;;;2.10;;
75760;SDS011;64373;46.136;8.830;2023-03-13T03:24:21;6.10;;;2.55;;
75760;SDS011;64373;46.136;8.830;2023-03-13T03:26:46;3.90;;;2.30;;
75760;SDS011;64373;46.136;8.830;2023-03-13T03:29:12;2.50;;;1.70;;
75760;SDS011;64373;46.136;8.830;2023-03-13T03:31:38;4.28;;;2.10;;
75760;SDS011;64373;46.136;8.830;2023-03-13T03:34:03;4.00;;;2.08;;
75760;SDS011;64373;46.136;8.830;2023-03-13T03:36:29;3.45;;;2.20;;
75760;SDS011;64373;46.136;8.830;2023-03-13T03:38:54;4.45;;;2.00;;
75760;SDS011;64373;46.136;8.830;2023-03-13T03:41:20;4.68;;;2.13;;
75760;SDS011;64373;46.136;8.830;2023-03-13T03:43:46;6.10;;;2.40;;
75760;SDS011;64373;46.136;8.830;2023-03-13T03:46:12;3.92;;;2.40;;
75760;SDS011;64373;46.136;8.830;2023-03-13T03:48:38;4.30;;;2.50;;
75760;SDS011;64373;46.136;8.830;2023-03-13T03:51:04;3.88;;;2.47;;
75760;SDS011;64373;46.136;8.830;2023-03-13T03:53:30;5.55;;;2.83;;
75760;SDS011;64373;46.136;8.830;2023-03-13T03:55:56;3.30;;;2.17;;
75760;SDS011;64373;46.136;8.830;2023-03-13T03:58:22;3.17;;;2.10;;
75760;SDS011;64373;46.136;8.830;2023-03-13T04:00:48;3.13;;;2.17;;
75760;SDS011;64373;46.136;8.830;2023-03-13T04:03:14;4.43;;;2.40;;
75760;SDS011;64373;46.136;8.830;2023-03-13T04:05:40;3.80;;;2.70;;
75760;SDS011;64373;46.136;8.830;2023-03-13T04:08:07;4.78;;;2.38;;
75760;SDS011;64373;46.136;8.830;2023-03-13T04:10:33;4.75;;;2.33;;
75760;SDS011;64373;46.136;8.830;2023-03-13T04:12:58;4.68;;;2.20;;
75760;SDS011;64373;46.136;8.830;2023-03-13T04:15:24;4.55;;;2.33;;
75760;SDS011;64373;46.136;8.830;2023-03-13T04:17:49;6.95;;;2.60;;
75760;SDS011;64373;46.136;8.830;2023-03-13T04:20:15;5.43;;;2.40;;
75760;SDS011;64373;46.136;8.830;2023-03-13T04:22:40;5.10;;;1.88;;
75760;SDS011;64373;46.136;8.830;2023-03-13T04:25:07;3.75;;;2.05;;
75760;SDS011;64373;46.136;8.830;2023-03-13T04:27:33;3.55;;;2.08;;
75760;SDS011;64373;46.136;8.830;2023-03-13T04:29:59;5.22;;;2.22;;
75760;SDS011;64373;46.136;8.830;2023-03-13T04:32:25;4.07;;;2.20;;
75760;SDS011;64373;46.136;8.830;2023-03-13T04:34:50;3.30;;;2.20;;
75760;SDS011;64373;46.136;8.830;2023-03-13T04:37:16;4.32;;;2.22;;
75760;SDS011;64373;46.136;8.830;2023-03-13T04:39:42;3.42;;;2.30;;
75760;SDS011;64373;46.136;8.830;2023-03-13T04:42:08;6.00;;;2.22;;
75760;SDS011;64373;46.136;8.830;2023-03-13T04:44:35;4.10;;;2.17;;
75760;SDS011;64373;46.136;8.830;2023-03-13T04:47:00;4.93;;;2.15;;
75760;SDS011;64373;46.136;8.830;2023-03-13T04:49:26;5.47;;;2.40;;
75760;SDS011;64373;46.136;8.830;2023-03-13T04:51:51;3.17;;;2.28;;
75760;SDS011;64373;46.136;8.830;2023-03-13T04:54:17;5.13;;;2.47;;
75760;SDS011;64373;46.136;8.830;2023-03-13T04:56:42;3.67;;;2.08;;
75760;SDS011;64373;46.136;8.830;2023-03-13T04:59:09;4.45;;;2.22;;
75760;SDS011;64373;46.136;8.830;2023-03-13T05:01:35;5.68;;;2.88;;
75760;SDS011;64373;46.136;8.830;2023-03-13T05:04:01;11.20;;;4.72;;
75760;SDS011;64373;46.136;8.830;2023-03-13T05:06:27;8.65;;;4.85;;
75760;SDS011;64373;46.136;8.830;2023-03-13T05:08:52;10.48;;;4.93;;
75760;SDS011;64373;46.136;8.830;2023-03-13T05:11:18;9.63;;;4.70;;
75760;SDS011;64373;46.136;8.830;2023-03-13T05:13:43;9.73;;;5.18;;
75760;SDS011;64373;46.136;8.830;2023-03-13T05:16:09;10.82;;;5.07;;
75760;SDS011;64373;46.136;8.830;2023-03-13T05:18:34;9.05;;;5.13;;
75760;SDS011;64373;46.136;8.830;2023-03-13T05:21:00;8.05;;;4.75;;
75760;SDS011;64373;46.136;8.830;2023-03-13T05:23:26;9.52;;;4.90;;
75760;SDS011;64373;46.136;8.830;2023-03-13T05:25:52;11.15;;;4.82;;
75760;SDS011;64373;46.136;8.830;2023-03-13T05:28:17;8.48;;;5.28;;
75760;SDS011;64373;46.136;8.830;2023-03-13T05:30:43;9.48;;;5.10;;
75760;SDS011;64373;46.136;8.830;2023-03-13T05:33:08;9.20;;;5.00;;
75760;SDS011;64373;46.136;8.830;2023-03-13T05:35:34;10.50;;;5.18;;
75760;SDS011;64373;46.136;8.830;2023-03-13T05:37:59;7.03;;;4.22;;
75760;SDS011;64373;46.136;8.830;2023-03-13T05:40:25;10.48;;;5.38;;
75760;SDS011;64373;46.136;8.830;2023-03-13T05:42:50;8.80;;;4.50;;
75760;SDS011;64373;46.136;8.830;2023-03-13T05:45:16;7.22;;;4.32;;
75760;SDS011;64373;46.136;8.830;2023-03-13T05:47:41;11.50;;;4.80;;
75760;SDS011;64373;46.136;8.830;2023-03-13T05:50:07;12.02;;;5.57;;
75760;SDS011;64373;46.136;8.830;2023-03-13T05:52:33;9.20;;;5.35;;
75760;SDS011;64373;46.136;8.830;2023-03-13T05:54:59;12.10;;;6.53;;
75760;SDS011;64373;46.136;8.830;2023-03-13T05:57:24;11.60;;;6.28;;
75760;SDS011;64373;46.136;8.830;2023-03-13T05:59:50;10.45;;;5.90;;
75760;SDS011;64373;46.136;8.830;2023-03-13T06:02:20;11.70;;;5.65;;
75760;SDS011;64373;46.136;8.830;2023-03-13T06:04:53;8.27;;;4.40;;
75760;SDS011;64373;46.136;8.830;2023-03-13T06:07:24;9.02;;;4.25;;
75760;SDS011;64373;46.136;8.830;2023-03-13T06:09:54;6.35;;;3.85;;
75760;SDS011;64373;46.136;8.830;2023-03-13T06:12:20;7.55;;;3.92;;
75760;SDS011;64373;46.136;8.830;2023-03-13T06:14:46;8.95;;;4.32;;
75760;SDS011;64373;46.136;8.830;2023-03-13T06:17:11;6.70;;;3.40;;
75760;SDS011;64373;46.136;8.830;2023-03-13T06:19:37;6.82;;;3.47;;
75760;SDS011;64373;46.136;8.830;2023-03-13T06:22:02;7.28;;;3.42;;
75760;SDS011;64373;46.136;8.830;2023-03-13T06:24:28;8.32;;;3.65;;
75760;SDS011;64373;46.136;8.830;2023-03-13T06:26:53;5.68;;;3.65;;
75760;SDS011;64373;46.136;8.830;2023-03-13T06:29:19;5.00;;;3.60;;
75760;SDS011;64373;46.136;8.830;2023-03-13T06:31:44;9.00;;;3.35;;
75760;SDS011;64373;46.136;8.830;2023-03-13T06:34:10;7.47;;;3.30;;
75760;SDS011;64373;46.136;8.830;2023-03-13T06:36:37;5.38;;;3.20;;
75760;SDS011;64373;46.136;8.830;2023-03-13T06:39:02;6.45;;;3.47;;
75760;SDS011;64373;46.136;8.830;2023-03-13T06:41:28;6.88;;;3.95;;
75760;SDS011;64373;46.136;8.830;2023-03-13T06:43:53;5.75;;;3.75;;
75760;SDS011;64373;46.136;8.830;2023-03-13T06:46:20;6.72;;;4.05;;
75760;SDS011;64373;46.136;8.830;2023-03-13T06:48:47;9.00;;;4.25;;
75760;SDS011;64373;46.136;8.830;2023-03-13T06:51:14;7.53;;;3.88;;
75760;SDS011;64373;46.136;8.830;2023-03-13T06:53:41;6.90;;;3.65;;
75760;SDS011;64373;46.136;8.830;2023-03-13T06:56:07;10.13;;;4.43;;
75760;SDS011;64373;46.136;8.830;2023-03-13T06:58:33;8.25;;;4.50;;
75760;SDS011;64373;46.136;8.830;2023-03-13T07:00:59;8.82;;;4.32;;
75760;SDS011;64373;46.136;8.830;2023-03-13T07:03:30;7.43;;;4.05;;
75760;SDS011;64373;46.136;8.830;2023-03-13T07:05:56;8.55;;;3.83;;
75760;SDS011;64373;46.136;8.830;2023-03-13T07:08:22;4.30;;;3.10;;
75760;SDS011;64373;46.136;8.830;2023-03-13T07:10:49;9.77;;;3.08;;
75760;SDS011;64373;46.136;8.830;2023-03-13T07:13:16;5.78;;;3.63;;
75760;SDS011;64373;46.136;8.830;2023-03-13T07:15:44;5.35;;;3.08;;
75760;SDS011;64373;46.136;8.830;2023-03-13T07:18:10;8.90;;;3.10;;
75760;SDS011;64373;46.136;8.830;2023-03-13T07:20:35;6.82;;;3.30;;
75760;SDS011;64373;46.136;8.830;2023-03-13T07:23:01;6.78;;;3.28;;
75760;SDS011;64373;46.136;8.830;2023-03-13T07:25:26;7.78;;;3.30;;
75760;SDS011;64373;46.136;8.830;2023-03-13T07:27:52;13.70;;;3.70;;
75760;SDS011;64373;46.136;8.830;2023-03-13T07:30:18;8.38;;;3.72;;
75760;SDS011;64373;46.136;8.830;2023-03-13T07:32:44;5.80;;;3.42;;
75760;SDS011;64373;46.136;8.830;2023-03-13T07:35:09;6.03;;;3.25;;
75760;SDS011;64373;46.136;8.830;2023-03-13T07:37:35;5.53;;;3.10;;
75760;SDS011;64373;46.136;8.830;2023-03-13T07:40:00;5.90;;;2.92;;
75760;SDS011;64373;46.136;8.830;2023-03-13T07:42:26;6.45;;;3.40;;
75760;SDS011;64373;46.136;8.830;2023-03-13T07:44:52;5.40;;;3.15;;
75760;SDS011;64373;46.136;8.830;2023-03-13T07:47:17;6.75;;;4.10;;
75760;SDS011;64373;46.136;8.830;2023-03-13T07:49:43;7.90;;;3.92;;
75760;SDS011;64373;46.136;8.830;2023-03-13T07:52:10;8.13;;;3.70;;
75760;SDS011;64373;46.136;8.830;2023-03-13T07:54:36;6.85;;;3.58;;
75760;SDS011;64373;46.136;8.830;2023-03-13T07:57:02;7.18;;;3.72;;
75760;SDS011;64373;46.136;8.830;2023-03-13T07:59:27;7.00;;;3.90;;
75760;SDS011;64373;46.136;8.830;2023-03-13T08:01:53;6.40;;;3.45;;
75760;SDS011;64373;46.136;8.830;2023-03-13T08:04:19;7.25;;;3.20;;
75760;SDS011;64373;46.136;8.830;2023-03-13T08:06:44;8.45;;;3.83;;
75760;SDS011;64373;46.136;8.830;2023-03-13T08:09:10;8.85;;;3.80;;
75760;SDS011;64373;46.136;8.830;2023-03-13T08:11:37;7.60;;;3.95;;
75760;SDS011;64373;46.136;8.830;2023-03-13T08:14:05;6.95;;;3.80;;
75760;SDS011;64373;46.136;8.830;2023-03-13T08:16:32;8.38;;;3.65;;
75760;SDS011;64373;46.136;8.830;2023-03-13T08:18:59;11.55;;;4.45;;
75760;SDS011;64373;46.136;8.830;2023-03-13T08:21:26;8.10;;;3.40;;
75760;SDS011;64373;46.136;8.830;2023-03-13T08:23:56;7.13;;;3.50;;
75760;SDS011;64373;46.136;8.830;2023-03-13T08:26:26;6.30;;;3.83;;
75760;SDS011;64373;46.136;8.830;2023-03-13T08:28:53;6.57;;;4.20;;
75760;SDS011;64373;46.136;8.830;2023-03-13T08:31:27;7.80;;;3.85;;
75760;SDS011;64373;46.136;8.830;2023-03-13T08:33:54;7.18;;;3.75;;
75760;SDS011;64373;46.136;8.830;2023-03-13T08:36:24;6.82;;;3.58;;
75760;SDS011;64373;46.136;8.830;2023-03-13T08:38:57;5.07;;;3.45;;
75760;SDS011;64373;46.136;8.830;2023-03-13T08:41:24;6.72;;;3.50;;
75760;SDS011;64373;46.136;8.830;2023-03-13T08:43:53;10.13;;;4.03;;
75760;SDS011;64373;46.136;8.830;2023-03-13T08:46:19;8.07;;;3.78;;
75760;SDS011;64373;46.136;8.830;2023-03-13T08:48:48;8.15;;;3.40;;
75760;SDS011;64373;46.136;8.830;2023-03-13T08:51:15;8.45;;;3.78;;
75760;SDS011;64373;46.136;8.830;2023-03-13T08:53:41;6.85;;;3.15;;
75760;SDS011;64373;46.136;8.830;2023-03-13T08:56:08;8.63;;;3.53;;
75760;SDS011;64373;46.136;8.830;2023-03-13T08:58:34;5.75;;;3.83;;
75760;SDS011;64373;46.136;8.830;2023-03-13T09:01:01;8.77;;;4.05;;
75760;SDS011;64373;46.136;8.830;2023-03-13T09:03:27;8.65;;;4.13;;
75760;SDS011;64373;46.136;8.830;2023-03-13T09:05:55;6.93;;;4.00;;
75760;SDS011;64373;46.136;8.830;2023-03-13T09:08:21;8.15;;;3.95;;
75760;SDS011;64373;46.136;8.830;2023-03-13T09:10:47;10.82;;;4.22;;
75760;SDS011;64373;46.136;8.830;2023-03-13T09:13:12;8.80;;;4.28;;
75760;SDS011;64373;46.136;8.830;2023-03-13T09:15:38;7.50;;;4.00;;
75760;SDS011;64373;46.136;8.830;2023-03-13T09:18:03;5.32;;;3.40;;
75760;SDS011;64373;46.136;8.830;2023-03-13T09:20:30;6.38;;;3.60;;
75760;SDS011;64373;46.136;8.830;2023-03-13T09:22:56;6.15;;;3.05;;
75760;SDS011;64373;46.136;8.830;2023-03-13T09:25:21;6.00;;;4.05;;
75760;SDS011;64373;46.136;8.830;2023-03-13T09:27:47;6.30;;;3.55;;
75760;SDS011;64373;46.136;8.830;2023-03-13T09:30:12;5.32;;;3.50;;
75760;SDS011;64373;46.136;8.830;2023-03-13T09:32:38;12.45;;;4.65;;
75760;SDS011;64373;46.136;8.830;2023-03-13T09:35:03;6.57;;;3.60;;
75760;SDS011;64373;46.136;8.830;2023-03-13T09:37:29;5.65;;;3.70;;
75760;SDS011;64373;46.136;8.830;2023-03-13T09:39:55;6.72;;;3.60;;
75760;SDS011;64373;46.136;8.830;2023-03-13T09:43:10;7.65;;;3.58;;
75760;SDS011;64373;46.136;8.830;2023-03-13T09:45:20;6.65;;;3.95;;
75760;SDS011;64373;46.136;8.830;2023-03-13T09:48:03;5.97;;;3.33;;
75760;SDS011;64373;46.136;8.830;2023-03-13T09:50:35;4.95;;;3.30;;
75760;SDS011;64373;46.136;8.830;2023-03-13T09:53:06;7.18;;;3.28;;
75760;SDS011;64373;46.136;8.830;2023-03-13T09:55:39;6.53;;;3.25;;
75760;SDS011;64373;46.136;8.830;2023-03-13T10:00:55;7.47;;;4.43;;
75760;SDS011;64373;46.136;8.830;2023-03-13T10:03:24;8.27;;;3.42;;
75760;SDS011;64373;46.136;8.830;2023-03-13T10:06:00;6.65;;;3.50;;
75760;SDS011;64373;46.136;8.830;2023-03-13T10:08:30;8.52;;;3.55;;
75760;SDS011;64373;46.136;8.830;2023-03-13T10:11:08;9.40;;;4.47;;
75760;SDS011;64373;46.136;8.830;2023-03-13T10:13:59;6.75;;;4.22;;
75760;SDS011;64373;46.136;8.830;2023-03-13T10:17:30;33.22;;;18.58;;
75760;SDS011;64373;46.136;8.830;2023-03-13T10:19:40;13.40;;;8.40;;
75760;SDS011;64373;46.136;8.830;2023-03-13T10:22:18;14.30;;;7.47;;
75760;SDS011;64373;46.136;8.830;2023-03-13T10:27:29;8.35;;;4.90;;
75760;SDS011;64373;46.136;8.830;2023-03-13T10:29:54;8.52;;;5.00;;
75760;SDS011;64373;46.136;8.830;2023-03-13T10:32:20;7.22;;;5.03;;
75760;SDS011;64373;46.136;8.830;2023-03-13T10:35:19;11.05;;;5.53;;
75760;SDS011;64373;46.136;8.830;2023-03-13T10:37:44;11.73;;;5.78;;
75760;SDS011;64373;46.136;8.830;2023-03-13T10:40:11;11.20;;;5.53;;
75760;SDS011;64373;46.136;8.830;2023-03-13T10:42:41;12.20;;;5.78;;
75760;SDS011;64373;46.136;8.830;2023-03-13T10:45:13;8.55;;;5.32;;
75760;SDS011;64373;46.136;8.830;2023-03-13T10:47:40;12.43;;;6.97;;
75760;SDS011;64373;46.136;8.830;2023-03-13T10:50:06;13.40;;;7.45;;
75760;SDS011;64373;46.136;8.830;2023-03-13T10:52:33;13.65;;;7.10;;
75760;SDS011;64373;46.136;8.830;2023-03-13T10:55:11;12.48;;;6.95;;
75760;SDS011;64373;46.136;8.830;2023-03-13T10:57:38;14.00;;;6.82;;
75760;SDS011;64373;46.136;8.830;2023-03-13T11:02:53;15.25;;;8.15;;
75760;SDS011;64373;46.136;8.830;2023-03-13T11:07:47;12.43;;;7.20;;
75760;SDS011;64373;46.136;8.830;2023-03-13T11:12:48;12.48;;;7.63;;
75760;SDS011;64373;46.136;8.830;2023-03-13T11:15:31;11.77;;;6.88;;
75760;SDS011;64373;46.136;8.830;2023-03-13T11:18:37;12.40;;;7.18;;
75760;SDS011;64373;46.136;8.830;2023-03-13T11:21:07;17.13;;;9.38;;
75760;SDS011;64373;46.136;8.830;2023-03-13T11:23:38;26.85;;;17.58;;
75760;SDS011;64373;46.136;8.830;2023-03-13T11:26:10;37.70;;;22.70;;
75760;SDS011;64373;46.136;8.830;2023-03-13T11:31:38;14.05;;;8.70;;
75760;SDS011;64373;46.136;8.830;2023-03-13T11:57:38;11.60;;;7.00;;
75760;SDS011;64373;46.136;8.830;2023-03-13T12:02:48;13.70;;;7.68;;
75760;SDS011;64373;46.136;8.830;2023-03-13T12:05:18;18.50;;;9.50;;
75760;SDS011;64373;46.136;8.830;2023-03-13T12:10:40;17.38;;;8.57;;
75760;SDS011;64373;46.136;8.830;2023-03-13T12:15:57;17.27;;;7.75;;
75760;SDS011;64373;46.136;8.830;2023-03-13T12:28:29;14.02;;;7.82;;
75760;SDS011;64373;46.136;8.830;2023-03-13T12:33:45;14.95;;;7.47;;
75760;SDS011;64373;46.136;8.830;2023-03-13T12:36:16;14.77;;;7.50;;
75760;SDS011;64373;46.136;8.830;2023-03-13T12:39:09;15.82;;;7.18;;
75760;SDS011;64373;46.136;8.830;2023-03-13T12:41:43;11.35;;;7.20;;
75760;SDS011;64373;46.136;8.830;2023-03-13T12:46:59;12.65;;;7.35;;
75760;SDS011;64373;46.136;8.830;2023-03-13T13:00:20;12.95;;;6.43;;
75760;SDS011;64373;46.136;8.830;2023-03-13T13:03:00;11.68;;;6.97;;
75760;SDS011;64373;46.136;8.830;2023-03-13T13:05:27;10.73;;;6.07;;
75760;SDS011;64373;46.136;8.830;2023-03-13T13:07:53;13.43;;;8.35;;
75760;SDS011;64373;46.136;8.830;2023-03-13T13:10:21;17.00;;;8.27;;
75760;SDS011;64373;46.136;8.830;2023-03-13T13:13:31;10.90;;;7.65;;
75760;SDS011;64373;46.136;8.830;2023-03-13T13:15:40;54.85;;;19.77;;
75760;SDS011;64373;46.136;8.830;2023-03-13T13:18:24;21.33;;;14.27;;
75760;SDS011;64373;46.136;8.830;2023-03-13T13:23:41;19.27;;;10.48;;
75760;SDS011;64373;46.136;8.830;2023-03-13T13:28:58;11.20;;;6.47;;
75760;SDS011;64373;46.136;8.830;2023-03-13T13:36:52;29.80;;;20.20;;
75760;SDS011;64373;46.136;8.830;2023-03-13T13:39:36;14.32;;;7.03;;
75760;SDS011;64373;46.136;8.830;2023-03-13T13:47:43;19.17;;;8.90;;
75760;SDS011;64373;46.136;8.830;2023-03-13T13:52:44;11.00;;;6.32;;
75760;SDS011;64373;46.136;8.830;2023-03-13T13:55:31;15.15;;;7.35;;
75760;SDS011;64373;46.136;8.830;2023-03-13T13:58:21;9.20;;;6.05;;
75760;SDS011;64373;46.136;8.830;2023-03-13T14:01:02;14.57;;;6.05;;
75760;SDS011;64373;46.136;8.830;2023-03-13T14:03:36;16.30;;;6.43;;
75760;SDS011;64373;46.136;8.830;2023-03-13T14:06:20;12.25;;;6.55;;
75760;SDS011;64373;46.136;8.830;2023-03-13T14:08:50;10.13;;;6.35;;
75760;SDS011;64373;46.136;8.830;2023-03-13T14:11:23;12.15;;;7.10;;
75760;SDS011;64373;46.136;8.830;2023-03-13T14:14:12;12.65;;;6.82;;
75760;SDS011;64373;46.136;8.830;2023-03-13T14:16:46;11.25;;;5.88;;
75760;SDS011;64373;46.136;8.830;2023-03-13T14:19:27;9.65;;;6.00;;
75760;SDS011;64373;46.136;8.830;2023-03-13T14:22:01;11.52;;;5.75;;
75760;SDS011;64373;46.136;8.830;2023-03-13T14:24:28;11.00;;;6.03;;
75760;SDS011;64373;46.136;8.830;2023-03-13T14:26:54;11.18;;;6.47;;
75760;SDS011;64373;46.136;8.830;2023-03-13T14:29:20;10.57;;;5.75;;
75760;SDS011;64373;46.136;8.830;2023-03-13T14:31:51;16.63;;;11.13;;
75760;SDS011;64373;46.136;8.830;2023-03-13T14:34:19;10.32;;;6.22;;
75760;SDS011;64373;46.136;8.830;2023-03-13T14:36:54;9.38;;;5.68;;
75760;SDS011;64373;46.136;8.830;2023-03-13T14:41:55;20.08;;;9.90;;
75760;SDS011;64373;46.136;8.830;2023-03-13T14:44:38;14.23;;;8.80;;
75760;SDS011;64373;46.136;8.830;2023-03-13T14:47:08;10.13;;;5.78;;
75760;SDS011;64373;46.136;8.830;2023-03-13T14:49:47;8.65;;;5.93;;
75760;SDS011;64373;46.136;8.830;2023-03-13T14:52:22;10.45;;;5.60;;
75760;SDS011;64373;46.136;8.830;2023-03-13T14:54:58;12.57;;;6.47;;
75760;SDS011;64373;46.136;8.830;2023-03-13T14:57:26;12.52;;;6.65;;
75760;SDS011;64373;46.136;8.830;2023-03-13T15:03:10;10.30;;;5.90;;
75760;SDS011;64373;46.136;8.830;2023-03-13T15:08:13;11.18;;;5.47;;
75760;SDS011;64373;46.136;8.830;2023-03-13T15:10:40;10.43;;;5.10;;
75760;SDS011;64373;46.136;8.830;2023-03-13T15:13:21;12.45;;;5.40;;
75760;SDS011;64373;46.136;8.830;2023-03-13T15:15:48;10.10;;;5.28;;
75760;SDS011;64373;46.136;8.830;2023-03-13T15:18:18;10.07;;;5.68;;
75760;SDS011;64373;46.136;8.830;2023-03-13T15:20:49;25.42;;;18.00;;
75760;SDS011;64373;46.136;8.830;2023-03-13T15:23:15;11.48;;;6.68;;
75760;SDS011;64373;46.136;8.830;2023-03-13T15:25:41;13.15;;;5.80;;
75760;SDS011;64373;46.136;8.830;2023-03-13T15:28:20;11.18;;;5.97;;
75760;SDS011;64373;46.136;8.830;2023-03-13T15:30:48;11.95;;;6.15;;
75760;SDS011;64373;46.136;8.830;2023-03-13T15:33:21;9.95;;;5.95;;
75760;SDS011;64373;46.136;8.830;2023-03-13T15:35:48;11.35;;;6.35;;
75760;SDS011;64373;46.136;8.830;2023-03-13T15:38:18;12.80;;;7.00;;
75760;SDS011;64373;46.136;8.830;2023-03-13T15:40:46;13.77;;;6.18;;
75760;SDS011;64373;46.136;8.830;2023-03-13T15:43:12;10.45;;;6.57;;
75760;SDS011;64373;46.136;8.830;2023-03-13T15:45:39;11.27;;;6.45;;
75760;SDS011;64373;46.136;8.830;2023-03-13T15:48:25;8.60;;;5.50;;
75760;SDS011;64373;46.136;8.830;2023-03-13T15:51:00;10.13;;;6.97;;
75760;SDS011;64373;46.136;8.830;2023-03-13T15:53:29;10.43;;;5.13;;
75760;SDS011;64373;46.136;8.830;2023-03-13T15:55:56;12.27;;;6.07;;
75760;SDS011;64373;46.136;8.830;2023-03-13T15:58:23;12.82;;;4.97;;
75760;SDS011;64373;46.136;8.830;2023-03-13T16:00:50;10.25;;;5.95;;
75760;SDS011;64373;46.136;8.830;2023-03-13T16:03:17;10.43;;;5.40;;
75760;SDS011;64373;46.136;8.830;2023-03-13T16:05:45;12.02;;;5.80;;
75760;SDS011;64373;46.136;8.830;2023-03-13T16:08:12;11.15;;;5.45;;
75760;SDS011;64373;46.136;8.830;2023-03-13T16:10:39;12.05;;;5.65;;
75760;SDS011;64373;46.136;8.830;2023-03-13T16:13:05;13.73;;;7.53;;
75760;SDS011;64373;46.136;8.830;2023-03-13T16:15:33;7.50;;;4.93;;
75760;SDS011;64373;46.136;8.830;2023-03-13T16:17:59;12.25;;;6.05;;
75760;SDS011;64373;46.136;8.830;2023-03-13T16:20:24;7.28;;;4.45;;
75760;SDS011;64373;46.136;8.830;2023-03-13T16:22:51;10.07;;;4.40;;
75760;SDS011;64373;46.136;8.830;2023-03-13T16:25:16;10.73;;;5.65;;
75760;SDS011;64373;46.136;8.830;2023-03-13T16:27:42;11.38;;;5.13;;
75760;SDS011;64373;46.136;8.830;2023-03-13T16:30:13;14.45;;;7.22;;
75760;SDS011;64373;46.136;8.830;2023-03-13T16:32:42;9.50;;;5.50;;
75760;SDS011;64373;46.136;8.830;2023-03-13T16:35:08;11.55;;;6.13;;
75760;SDS011;64373;46.136;8.830;2023-03-13T16:37:33;16.00;;;7.00;;
75760;SDS011;64373;46.136;8.830;2023-03-13T16:39:59;9.68;;;6.35;;
75760;SDS011;64373;46.136;8.830;2023-03-13T16:42:25;12.95;;;6.70;;
75760;SDS011;64373;46.136;8.830;2023-03-13T16:44:51;13.02;;;6.45;;
75760;SDS011;64373;46.136;8.830;2023-03-13T16:47:21;10.30;;;6.05;;
75760;SDS011;64373;46.136;8.830;2023-03-13T16:49:49;10.75;;;5.38;;
75760;SDS011;64373;46.136;8.830;2023-03-13T16:52:16;11.50;;;5.03;;
75760;SDS011;64373;46.136;8.830;2023-03-13T16:54:42;12.38;;;6.05;;
75760;SDS011;64373;46.136;8.830;2023-03-13T16:57:11;10.13;;;6.22;;